Time;durP1;ratioP1;P1;durP2;ratioP2;P2;SDS_P1;SDS_P2;PMS_P1;PMS_P2;Temp;Humidity;BMP_temperature;BMP_pressure;BME280_temperature;BME280_humidity;BME280_pressure;Samples;Min_cycle;Max_cycle;Signal;HPM_P1;HPM_P2
2021/06/17 00:00:46;;;;;;;13.20;11.82;;;;;;;20.64;64.24;100589.84;4962326;28;20043;-74
2021/06/17 00:03:12;;;;;;;13.52;11.63;;;;;;;20.60;64.45;100587.41;4964616;28;20034;-75
2021/06/17 00:05:37;;;;;;;13.73;12.50;;;;;;;20.54;65.05;100592.13;4945391;28;20384;-75
2021/06/17 00:08:06;;;;;;;14.55;12.82;;;;;;;20.51;65.34;100594.03;4964219;28;20550;-75
2021/06/17 00:10:40;;;;;;;15.63;13.23;;;;;;;20.47;65.41;100598.66;4962097;28;20046;-75
2021/06/17 00:13:09;;;;;;;19.85;14.90;;;;;;;20.47;65.16;100604.03;4962092;28;20039;-75
2021/06/17 00:15:35;;;;;;;17.20;14.80;;;;;;;20.46;65.12;100602.31;4961756;28;20038;-75
2021/06/17 00:18:01;;;;;;;18.50;16.70;;;;;;;20.45;65.85;100602.34;4964592;28;20035;-75
2021/06/17 00:20:28;;;;;;;15.90;14.32;;;;;;;20.43;66.09;100601.56;4962783;28;20483;-75
2021/06/17 00:22:54;;;;;;;12.27;10.82;;;;;;;20.41;66.12;100607.00;4963782;28;20491;-75
2021/06/17 00:25:20;;;;;;;11.63;10.02;;;;;;;20.39;66.37;100606.19;4963040;28;20035;-75
2021/06/17 00:27:46;;;;;;;11.57;10.07;;;;;;;20.36;66.84;100603.66;4963093;28;20399;-75
2021/06/17 00:30:13;;;;;;;11.32;10.07;;;;;;;20.34;66.93;100603.72;4964059;28;20047;-75
2021/06/17 00:32:38;;;;;;;12.25;10.73;;;;;;;20.32;66.88;100599.38;4962164;28;20118;-75
2021/06/17 00:35:06;;;;;;;12.38;10.07;;;;;;;20.31;67.08;100597.63;4964369;28;20125;-75
2021/06/17 00:37:32;;;;;;;12.45;10.25;;;;;;;20.31;67.82;100603.00;4961358;28;20039;-74
2021/06/17 00:39:59;;;;;;;10.52;9.43;;;;;;;20.28;67.39;100604.00;4964664;28;20400;-75
2021/06/17 00:42:24;;;;;;;12.43;10.57;;;;;;;20.26;67.63;100600.53;4961993;28;20039;-75
2021/06/17 00:44:50;;;;;;;14.38;11.57;;;;;;;20.25;68.28;100597.91;4963687;28;20039;-75
2021/06/17 00:47:15;;;;;;;13.73;11.25;;;;;;;20.23;68.60;100589.09;4962529;28;20047;-74
2021/06/17 00:49:40;;;;;;;12.65;10.93;;;;;;;20.20;68.40;100602.59;4963326;28;20042;-75
2021/06/17 00:52:06;;;;;;;11.48;9.80;;;;;;;20.19;68.19;100587.47;4962902;28;20046;-75
2021/06/17 00:54:33;;;;;;;11.25;10.13;;;;;;;20.18;68.19;100594.63;4962238;28;20066;-75
2021/06/17 00:57:04;;;;;;;13.52;10.85;;;;;;;20.17;68.68;100590.19;4963671;28;20101;-75
2021/06/17 00:59:29;;;;;;;12.13;10.65;;;;;;;20.11;68.46;100591.34;4961283;28;20063;-75
2021/06/17 01:01:55;;;;;;;13.65;10.77;;;;;;;20.10;68.84;100592.31;4964626;28;20458;-75
2021/06/17 01:04:25;;;;;;;14.45;11.50;;;;;;;20.08;68.67;100588.81;4960729;28;20042;-75
2021/06/17 01:06:52;;;;;;;14.70;10.63;;;;;;;20.05;68.63;100593.44;4963596;28;20062;-75
2021/06/17 01:09:23;;;;;;;11.75;10.65;;;;;;;20.03;69.12;100593.50;4962469;28;20047;-75
2021/06/17 01:12:01;;;;;;;13.20;10.98;;;;;;;20.00;69.76;100582.06;4944701;28;20267;-75
2021/06/17 01:14:44;;;;;;;14.43;10.90;;;;;;;19.96;69.37;100581.31;4960864;28;20070;-75
2021/06/17 01:17:14;;;;;;;12.55;10.88;;;;;;;19.92;69.25;100579.72;4961158;28;20407;-74
2021/06/17 01:20:07;;;;;;;13.13;11.65;;;;;;;19.88;70.24;100576.28;4957554;28;20423;-75
2021/06/17 01:22:49;;;;;;;12.27;10.90;;;;;;;19.85;70.23;100583.59;4957832;28;20039;-75
2021/06/17 01:25:36;;;;;;;11.38;10.20;;;;;;;19.79;70.35;100584.75;4961306;28;20035;-75
2021/06/17 01:28:22;;;;;;;11.77;10.57;;;;;;;19.75;70.59;100582.25;4961168;28;20054;-76
2021/06/17 01:30:55;;;;;;;11.23;10.13;;;;;;;19.75;69.83;100584.94;4955691;28;20467;-75
2021/06/17 01:33:24;;;;;;;13.90;11.52;;;;;;;19.73;69.95;100585.03;4961821;28;20035;-75
2021/06/17 01:35:50;;;;;;;12.73;11.43;;;;;;;19.72;70.45;100585.06;4963770;28;20122;-75
2021/06/17 01:38:22;;;;;;;12.88;10.77;;;;;;;19.69;70.24;100584.25;4960610;28;20451;-75
2021/06/17 01:40:49;;;;;;;27.58;12.60;;;;;;;19.68;70.27;100584.34;4963373;28;20121;-75
2021/06/17 01:43:16;;;;;;;12.40;11.07;;;;;;;19.68;70.57;100584.34;4962154;28;20114;-75
2021/06/17 01:45:42;;;;;;;12.40;10.80;;;;;;;19.68;70.15;100582.53;4962002;28;20046;-74
2021/06/17 01:48:08;;;;;;;14.95;12.00;;;;;;;19.68;70.21;100582.53;4930596;28;20484;-75
2021/06/17 01:50:34;;;;;;;13.90;12.43;;;;;;;19.70;70.42;100579.78;4950233;28;20036;-75
2021/06/17 01:53:00;;;;;;;16.05;13.27;;;;;;;19.68;70.23;100579.84;4958698;28;20518;-74
2021/06/17 01:55:37;;;;;;;13.80;11.82;;;;;;;19.67;70.87;100585.25;4943865;28;20034;-75
2021/06/17 01:58:06;;;;;;;16.48;14.88;;;;;;;19.66;70.07;100572.78;4960337;28;20090;-76
2021/06/17 02:00:33;;;;;;;15.43;13.88;;;;;;;19.62;70.37;100572.06;4962158;28;20114;-75
2021/06/17 02:03:05;;;;;;;14.57;13.18;;;;;;;19.60;70.93;100576.59;4962860;28;20399;-75
2021/06/17 02:05:31;;;;;;;14.80;13.00;;;;;;;19.57;70.81;100574.06;4960065;28;20043;-75
2021/06/17 02:07:59;;;;;;;14.43;11.88;;;;;;;19.54;70.64;100571.50;4960310;28;20121;-75
2021/06/17 02:10:26;;;;;;;15.18;12.18;;;;;;;19.51;70.92;100574.31;4963429;28;20030;-75
2021/06/17 02:12:52;;;;;;;13.48;12.07;;;;;;;19.48;70.90;100567.28;4961478;28;20412;-75
2021/06/17 02:15:19;;;;;;;14.50;12.95;;;;;;;19.38;71.79;100578.44;4959178;28;20491;-75
2021/06/17 02:17:47;;;;;;;13.63;11.75;;;;;;;19.25;72.05;100576.25;4962134;28;20065;-75
2021/06/17 02:20:13;;;;;;;19.88;13.85;;;;;;;19.19;72.35;100567.63;4962694;28;20045;-75
2021/06/17 02:22:42;;;;;;;14.25;12.85;;;;;;;19.19;72.16;100570.31;4961035;28;20070;-75
2021/06/17 02:25:09;;;;;;;14.35;12.43;;;;;;;19.16;72.70;100570.44;4965912;28;20042;-75
2021/06/17 02:27:37;;;;;;;14.60;13.10;;;;;;;19.09;73.48;100567.13;4960406;28;20138;-74
2021/06/17 02:30:08;;;;;;;14.65;12.57;;;;;;;19.01;73.45;100562.09;4966506;28;20419;-74
2021/06/17 02:32:39;;;;;;;16.42;13.85;;;;;;;18.97;73.14;100568.53;4965327;28;20066;-74
2021/06/17 02:35:06;;;;;;;17.10;15.38;;;;;;;18.98;73.07;100572.06;4946902;28;20085;-74
2021/06/17 02:37:33;;;;;;;20.30;18.13;;;;;;;19.00;72.80;100560.38;4966672;28;20420;-75
2021/06/17 02:40:00;;;;;;;19.40;17.33;;;;;;;19.03;72.66;100562.06;4943001;28;20099;-75
2021/06/17 02:42:26;;;;;;;17.83;16.13;;;;;;;19.05;72.36;100566.41;4966372;28;20065;-76
2021/06/17 02:44:52;;;;;;;15.70;14.02;;;;;;;18.97;73.17;100563.19;4963794;28;20031;-74
2021/06/17 02:47:18;;;;;;;16.23;13.63;;;;;;;18.89;72.83;100565.28;4965722;28;20495;-74
2021/06/17 02:49:44;;;;;;;14.52;12.57;;;;;;;18.87;73.44;100560.94;4964697;28;20050;-75
2021/06/17 02:52:10;;;;;;;20.98;18.88;;;;;;;18.82;73.12;100563.78;4947976;28;20050;-75
2021/06/17 02:54:36;;;;;;;18.25;15.80;;;;;;;18.82;73.42;100563.78;4964959;28;20484;-75
2021/06/17 02:57:24;;;;;;;18.88;16.98;;;;;;;18.80;73.53;100561.16;4964489;28;20121;-75
2021/06/17 03:00:20;;;;;;;17.38;15.60;;;;;;;18.81;73.90;100562.03;4962826;28;20038;-75
2021/06/17 03:03:12;;;;;;;18.17;16.27;;;;;;;18.84;73.52;100559.25;4953357;28;20047;-75
2021/06/17 03:05:42;;;;;;;20.60;18.45;;;;;;;18.91;72.83;100565.22;4963620;28;20042;-75
2021/06/17 03:08:17;;;;;;;17.65;15.85;;;;;;;18.89;73.19;100562.63;4963411;28;20039;-75
2021/06/17 03:10:45;;;;;;;17.35;15.65;;;;;;;18.92;72.53;100561.63;4963701;28;20046;-75
2021/06/17 03:13:12;;;;;;;17.52;14.68;;;;;;;18.94;72.58;100562.41;4965110;28;20038;-75
2021/06/17 03:15:41;;;;;;;17.65;15.63;;;;;;;18.93;73.04;100555.31;4964341;28;20077;-75
2021/06/17 03:18:07;;;;;;;16.38;14.68;;;;;;;18.87;72.91;100567.16;4963838;28;20039;-75
2021/06/17 03:20:36;;;;;;;18.92;16.92;;;;;;;18.88;73.01;100562.66;4965646;28;20186;-75
2021/06/17 03:23:05;;;;;;;18.50;16.60;;;;;;;18.94;73.14;100562.41;4942406;28;20043;-75
2021/06/17 03:25:32;;;;;;;20.00;18.00;;;;;;;18.98;72.95;100558.69;4965312;28;20073;-75
2021/06/17 03:27:58;;;;;;;19.90;18.00;;;;;;;19.01;72.88;100558.56;4963846;28;20035;-75
2021/06/17 03:30:27;;;;;;;25.58;22.27;;;;;;;19.03;72.67;100556.69;4964889;28;20081;-75
2021/06/17 03:32:56;;;;;;;24.20;21.27;;;;;;;19.09;72.65;100552.91;4964762;28;20086;-75
2021/06/17 03:35:22;;;;;;;25.80;22.65;;;;;;;19.14;72.55;100554.44;4962496;28;20035;-75
2021/06/17 03:37:50;;;;;;;23.33;20.58;;;;;;;19.21;72.20;100552.41;4965676;28;20063;-75
2021/06/17 03:40:17;;;;;;;22.98;20.58;;;;;;;19.26;72.05;100553.94;4954875;28;20042;-75
2021/06/17 03:42:43;;;;;;;20.25;18.15;;;;;;;19.30;71.75;100559.16;4965505;28;20042;-75
2021/06/17 03:45:09;;;;;;;25.27;20.60;;;;;;;19.33;71.76;100559.88;4963106;28;20034;-75
2021/06/17 03:47:36;;;;;;;19.30;17.10;;;;;;;19.36;71.82;100558.91;4964753;28;20039;-77
2021/06/17 03:50:01;;;;;;;19.27;16.17;;;;;;;19.35;71.61;100557.16;4963920;28;20027;-74
2021/06/17 03:52:27;;;;;;;17.92;16.15;;;;;;;19.40;71.59;100549.81;4963904;28;20487;-75
2021/06/17 03:54:55;;;;;;;17.73;15.82;;;;;;;19.43;71.89;100555.91;4963975;28;20757;-75
2021/06/17 03:57:22;;;;;;;18.50;16.67;;;;;;;19.43;71.63;100552.34;4962946;28;20035;-75
2021/06/17 03:59:50;;;;;;;20.25;18.35;;;;;;;19.51;71.40;100555.56;4960614;28;20039;-75
2021/06/17 04:02:15;;;;;;;20.67;18.48;;;;;;;19.56;71.71;100553.56;4958193;28;20031;-75
2021/06/17 04:04:41;;;;;;;26.48;23.73;;;;;;;19.63;71.16;100557.72;4964869;28;20041;-75
2021/06/17 04:07:14;;;;;;;22.95;20.65;;;;;;;19.72;71.02;100560.97;4962428;28;20043;-75
2021/06/17 04:09:43;;;;;;;20.60;18.58;;;;;;;19.81;70.52;100565.94;4963779;28;20122;-74
2021/06/17 04:12:15;;;;;;;21.13;18.20;;;;;;;19.86;70.58;100567.47;4964267;28;20038;-75
2021/06/17 04:14:44;;;;;;;21.52;19.23;;;;;;;19.94;69.85;100567.13;4961376;28;20479;-75
2021/06/17 04:17:17;;;;;;;22.58;20.30;;;;;;;20.01;69.61;100557.88;4964956;28;20035;-75
2021/06/17 04:19:45;;;;;;;22.92;20.52;;;;;;;20.08;69.46;100559.34;4963626;28;20039;-75
2021/06/17 04:22:12;;;;;;;25.98;23.48;;;;;;;20.17;69.30;100558.03;4961125;28;20057;-75
2021/06/17 04:24:48;;;;;;;26.60;23.90;;;;;;;20.25;69.18;100560.38;4961394;28;20039;-75
2021/06/17 04:27:15;;;;;;;24.38;22.00;;;;;;;20.33;68.50;100568.94;4959186;28;20121;-76
2021/06/17 04:29:41;;;;;;;25.27;22.83;;;;;;;20.41;68.31;100565.91;4963986;28;20035;-75
2021/06/17 04:32:09;;;;;;;21.25;19.15;;;;;;;20.50;68.38;100565.50;4963094;28;20104;-75
2021/06/17 04:34:38;;;;;;;19.15;17.15;;;;;;;20.56;67.60;100565.22;4962590;28;20039;-75
2021/06/17 04:37:04;;;;;;;16.73;14.80;;;;;;;20.66;67.42;100566.53;4964276;28;20133;-75
2021/06/17 04:39:30;;;;;;;15.18;13.68;;;;;;;20.71;66.88;100566.31;4961819;28;20516;-75
2021/06/17 04:41:57;;;;;;;15.48;13.45;;;;;;;20.78;66.93;100570.44;4964800;28;20086;-75
2021/06/17 04:44:22;;;;;;;13.45;12.05;;;;;;;20.86;66.59;100575.44;4957420;28;20035;-75
2021/06/17 04:46:48;;;;;;;14.82;13.32;;;;;;;20.93;65.88;100567.03;4964276;28;20065;-75
2021/06/17 04:49:16;;;;;;;14.90;13.40;;;;;;;21.01;65.62;100578.25;4961439;28;20380;-75
2021/06/17 04:51:42;;;;;;;17.80;15.93;;;;;;;21.12;65.89;100583.09;4963421;28;20046;-75
2021/06/17 04:54:09;;;;;;;15.27;13.88;;;;;;;21.21;65.16;100581.75;4962696;28;20058;-76
2021/06/17 04:56:35;;;;;;;17.85;13.05;;;;;;;21.29;64.88;100578.69;4962540;28;20045;-75
2021/06/17 04:59:00;;;;;;;15.48;11.98;;;;;;;21.39;64.15;100588.06;4960799;28;20031;-75
2021/06/17 05:01:25;;;;;;;12.57;11.38;;;;;;;21.47;64.09;100583.19;4960727;28;20121;-75
2021/06/17 05:03:51;;;;;;;15.63;13.93;;;;;;;21.57;63.52;100591.66;4960928;28;20046;-76
2021/06/17 05:06:18;;;;;;;14.98;13.43;;;;;;;21.67;63.84;100584.84;4963725;28;20038;-75
2021/06/17 05:11:28;;;;;;;18.15;16.27;;;;;;;21.88;63.26;100591.81;4960421;28;20034;-75
2021/06/17 05:13:53;;;;;;;20.92;18.73;;;;;;;21.99;62.86;100599.28;4961564;28;20043;-76
2021/06/17 05:16:19;;;;;;;18.70;16.65;;;;;;;22.08;62.35;100587.19;4961333;28;20049;-75
2021/06/17 05:18:45;;;;;;;18.38;16.45;;;;;;;22.18;62.20;100582.19;4961862;28;20523;-76
2021/06/17 05:21:10;;;;;;;15.63;14.02;;;;;;;22.28;61.60;100596.91;4962244;28;20031;-76
2021/06/17 05:23:40;;;;;;;18.65;16.70;;;;;;;22.41;61.79;100594.44;4960682;28;20081;-75
2021/06/17 05:26:07;;;;;;;17.38;15.77;;;;;;;22.53;61.60;100591.94;4962948;28;20061;-74
2021/06/17 05:28:32;;;;;;;17.33;15.25;;;;;;;22.63;61.18;100594.97;4962116;28;20032;-75
2021/06/17 05:31:00;;;;;;;18.02;15.80;;;;;;;22.76;60.57;100593.34;4962636;28;20062;-75
2021/06/17 05:33:27;;;;;;;19.67;17.75;;;;;;;22.88;60.50;100599.00;4963239;28;20046;-75
2021/06/17 05:35:53;;;;;;;14.32;12.90;;;;;;;22.94;60.01;100599.50;4961040;28;20691;-75
2021/06/17 05:38:22;;;;;;;11.07;9.60;;;;;;;23.01;59.43;100597.38;4963417;28;20046;-75
2021/06/17 05:40:48;;;;;;;15.75;14.25;;;;;;;23.10;59.87;100602.22;4957053;28;20035;-77
2021/06/17 05:43:14;;;;;;;13.05;11.40;;;;;;;23.22;59.16;100602.50;4964492;28;20142;-72
2021/06/17 05:45:40;;;;;;;14.52;13.00;;;;;;;23.32;59.12;100609.97;4963054;28;20046;-74
2021/06/17 05:48:06;;;;;;;12.35;11.10;;;;;;;23.41;58.75;100613.94;4960208;28;20548;-73
2021/06/17 05:50:32;;;;;;;16.98;15.05;;;;;;;23.52;58.66;100616.00;4957871;28;20032;-74
2021/06/17 05:52:57;;;;;;;11.73;9.35;;;;;;;23.61;57.75;100618.16;4962446;28;20435;-75
2021/06/17 05:55:22;;;;;;;11.38;9.93;;;;;;;23.71;57.56;100622.03;4944703;28;20023;-73
2021/06/17 05:57:48;;;;;;;15.45;13.90;;;;;;;23.80;57.02;100626.03;4960445;28;20514;-75
2021/06/17 06:00:15;;;;;;;7.57;6.68;;;;;;;23.87;56.47;100616.63;4965485;28;20126;-74
2021/06/17 06:02:40;;;;;;;6.20;5.60;;;;;;;24.00;56.45;100614.94;4965076;28;20102;-73
2021/06/17 06:05:06;;;;;;;7.10;5.28;;;;;;;24.14;56.32;100616.78;4966543;28;20503;-74
2021/06/17 06:07:31;;;;;;;12.50;9.88;;;;;;;24.26;55.12;100617.81;4964342;28;20094;-73
2021/06/17 06:09:57;;;;;;;11.55;6.97;;;;;;;24.37;54.20;100625.28;4967708;28;20137;-74
2021/06/17 06:12:22;;;;;;;7.43;6.60;;;;;;;24.48;54.32;100623.66;4964016;28;20043;-74
2021/06/17 06:14:48;;;;;;;10.52;8.98;;;;;;;24.64;53.88;100625.41;4966948;28;20503;-74
2021/06/17 06:17:13;;;;;;;17.05;14.25;;;;;;;24.73;53.71;100619.41;4930921;28;20050;-73
2021/06/17 06:19:38;;;;;;;8.15;6.47;;;;;;;24.84;52.83;100616.91;4961189;28;20145;-73
2021/06/17 06:22:08;;;;;;;7.30;5.30;;;;;;;24.90;51.76;100618.34;4966090;28;20118;-74
2021/06/17 06:24:35;;;;;;;7.72;5.32;;;;;;;25.01;51.89;100615.81;4963230;28;20054;-74
2021/06/17 06:27:02;;;;;;;16.13;10.50;;;;;;;25.14;52.14;100621.28;4962956;28;20038;-73
2021/06/17 06:29:28;;;;;;;14.45;11.70;;;;;;;25.27;51.15;100621.38;4966680;28;20049;-73
2021/06/17 06:31:54;;;;;;;13.82;11.95;;;;;;;25.35;50.63;100619.03;4964071;28;20079;-73
2021/06/17 06:34:20;;;;;;;7.75;6.05;;;;;;;25.46;49.46;100621.84;4966788;28;20043;-73
2021/06/17 06:36:45;;;;;;;15.05;10.82;;;;;;;25.60;49.83;100612.84;4963338;28;20118;-73
2021/06/17 06:39:11;;;;;;;13.00;10.63;;;;;;;25.70;48.96;100616.66;4963654;28;20133;-74
2021/06/17 06:41:37;;;;;;;7.32;5.28;;;;;;;25.75;47.32;100611.81;4966759;28;20097;-73
2021/06/17 06:44:03;;;;;;;9.05;7.70;;;;;;;25.85;47.12;100627.41;4964208;28;20607;-73
2021/06/17 06:46:28;;;;;;;8.98;7.20;;;;;;;25.95;47.15;100621.25;4965723;28;20042;-72
2021/06/17 06:48:54;;;;;;;9.48;8.13;;;;;;;26.06;46.69;100619.66;4964620;28;20039;-74
2021/06/17 06:51:19;;;;;;;9.40;5.80;;;;;;;26.13;46.45;100613.72;4965218;28;20039;-73
2021/06/17 06:53:44;;;;;;;10.63;8.90;;;;;;;26.22;46.75;100614.91;4965219;28;20226;-75
2021/06/17 06:56:10;;;;;;;11.68;10.45;;;;;;;26.32;46.45;100617.84;4964247;28;20077;-74
2021/06/17 06:58:35;;;;;;;8.50;7.30;;;;;;;26.42;46.08;100621.63;4965586;28;20031;-74
2021/06/17 07:01:00;;;;;;;14.60;11.25;;;;;;;26.52;45.87;100614.63;4964001;28;20039;-73
2021/06/17 07:03:26;;;;;;;12.00;10.52;;;;;;;26.61;45.34;100613.06;4965794;28;20054;-74
2021/06/17 07:05:51;;;;;;;10.00;8.95;;;;;;;26.67;44.92;100608.09;4942862;28;20036;-74
2021/06/17 07:08:17;;;;;;;11.40;10.10;;;;;;;26.75;44.68;100609.38;4965973;28;20074;-74
2021/06/17 07:10:46;;;;;;;10.73;9.60;;;;;;;26.80;44.00;100609.91;4958703;28;20038;-74
2021/06/17 07:13:13;;;;;;;13.20;11.90;;;;;;;26.84;43.78;100619.53;4958600;28;20039;-74
2021/06/17 07:15:39;;;;;;;10.43;8.07;;;;;;;26.93;43.45;100626.13;4958350;28;20061;-74
2021/06/17 07:18:05;;;;;;;7.20;5.55;;;;;;;27.03;43.02;100617.19;4964994;28;20534;-74
2021/06/17 07:20:30;;;;;;;14.77;11.65;;;;;;;27.17;43.40;100618.00;4964571;28;20031;-73
2021/06/17 07:22:56;;;;;;;9.10;7.75;;;;;;;27.25;42.68;100612.94;4964387;28;20034;-74
2021/06/17 07:25:23;;;;;;;20.17;12.95;;;;;;;27.30;42.78;100613.44;4964703;28;20475;-74
2021/06/17 07:27:48;;;;;;;12.98;10.07;;;;;;;27.41;42.38;100616.22;4946364;28;20042;-73
2021/06/17 07:30:14;;;;;;;11.75;10.20;;;;;;;27.51;42.13;100619.13;4965566;28;20039;-74
2021/06/17 07:32:40;;;;;;;15.02;12.00;;;;;;;27.59;42.23;100632.06;4962658;28;20039;-74
2021/06/17 07:35:06;;;;;;;11.48;9.80;;;;;;;27.71;41.65;100623.00;4966078;28;20046;-74
2021/06/17 07:37:31;;;;;;;17.00;12.70;;;;;;;27.81;41.37;100634.91;4958866;28;20039;-74
2021/06/17 07:39:57;;;;;;;18.50;11.98;;;;;;;27.91;41.41;100635.06;4965654;28;20458;-74
2021/06/17 07:42:22;;;;;;;13.88;11.98;;;;;;;27.99;41.31;100623.63;4963162;28;20035;-74
2021/06/17 07:44:49;;;;;;;11.82;9.00;;;;;;;28.08;40.72;100629.19;4965531;28;20038;-78
2021/06/17 07:47:15;;;;;;;8.15;6.22;;;;;;;28.15;40.56;100627.72;4931906;28;20831;-78
2021/06/17 07:49:40;;;;;;;12.02;10.75;;;;;;;28.24;40.58;100631.56;4964587;28;20046;-76
2021/06/17 07:52:06;;;;;;;15.25;13.18;;;;;;;28.38;40.33;100633.19;4962104;28;20410;-73
2021/06/17 07:54:32;;;;;;;13.73;12.32;;;;;;;28.47;40.05;100620.78;4964005;28;20031;-74
2021/06/17 07:56:58;;;;;;;11.05;9.82;;;;;;;28.55;40.06;100619.16;4963218;28;20042;-74
2021/06/17 07:59:24;;;;;;;6.10;5.00;;;;;;;28.57;39.07;100621.75;4960206;28;20034;-74
2021/06/17 08:01:51;;;;;;;14.73;9.60;;;;;;;28.61;39.07;100612.38;4965236;28;20050;-74
2021/06/17 08:04:17;;;;;;;11.70;9.82;;;;;;;28.72;38.69;100615.09;4961180;28;20022;-74
2021/06/17 08:06:42;;;;;;;16.25;13.07;;;;;;;28.87;38.89;100622.97;4959572;28;20054;-74
2021/06/17 08:09:09;;;;;;;13.45;12.00;;;;;;;28.99;39.00;100616.53;4964814;28;20492;-74
2021/06/17 08:11:34;;;;;;;11.13;8.88;;;;;;;29.08;37.40;100610.38;4963386;28;20031;-74
2021/06/17 08:14:00;;;;;;;12.23;10.50;;;;;;;29.15;37.75;100610.75;4959217;28;20035;-74
2021/06/17 08:16:25;;;;;;;10.10;7.20;;;;;;;29.19;36.99;100613.09;4959901;28;20039;-74
2021/06/17 08:18:54;;;;;;;7.30;5.57;;;;;;;29.26;36.89;100607.97;4963794;28;20035;-74
2021/06/17 08:21:19;;;;;;;12.20;10.13;;;;;;;29.39;36.57;100618.69;4964006;28;20463;-74
2021/06/17 08:23:45;;;;;;;16.70;11.88;;;;;;;29.47;36.55;100616.19;4959272;28;20034;-74
2021/06/17 08:26:10;;;;;;;8.43;6.25;;;;;;;29.59;34.97;100615.16;4962044;28;20082;-74
2021/06/17 08:28:36;;;;;;;10.65;8.27;;;;;;;29.65;35.82;100616.53;4964654;28;20043;-74
2021/06/17 08:31:01;;;;;;;7.55;6.05;;;;;;;29.73;35.55;100619.44;4961377;28;20084;-74
2021/06/17 08:33:26;;;;;;;6.65;4.22;;;;;;;29.75;35.28;100620.19;4961546;28;20128;-74
2021/06/17 08:35:52;;;;;;;10.10;4.97;;;;;;;29.83;34.47;100628.56;4961073;28;20186;-74
2021/06/17 08:38:21;;;;;;;6.03;4.63;;;;;;;29.90;34.82;100618.03;4964470;28;20089;-74
2021/06/17 08:40:46;;;;;;;13.07;9.30;;;;;;;30.03;34.39;100623.28;4962346;28;20063;-74
2021/06/17 08:43:12;;;;;;;11.77;8.10;;;;;;;30.13;33.52;100626.94;4963672;28;20145;-74
2021/06/17 08:45:38;;;;;;;7.20;5.53;;;;;;;30.21;33.90;100626.22;4962482;28;20050;-74
2021/06/17 08:48:03;;;;;;;11.32;8.27;;;;;;;30.23;33.41;100624.25;4963017;28;20086;-74
2021/06/17 08:50:29;;;;;;;10.20;7.80;;;;;;;30.27;34.06;100623.03;4963286;28;20423;-75
2021/06/17 08:52:55;;;;;;;12.50;9.43;;;;;;;30.28;33.82;100622.88;4964900;28;20134;-74
2021/06/17 08:55:26;;;;;;;11.32;9.57;;;;;;;30.41;34.02;100621.81;4961592;28;20054;-74
2021/06/17 08:57:53;;;;;;;11.68;8.45;;;;;;;30.49;33.07;100620.09;4964711;28;20039;-73
2021/06/17 09:00:21;;;;;;;9.00;7.82;;;;;;;30.56;33.46;100620.44;4961401;28;20090;-74
2021/06/17 09:03:02;;;;;;;12.95;9.68;;;;;;;30.64;33.02;100612.44;4963645;28;20411;-74
2021/06/17 09:05:29;;;;;;;8.85;7.78;;;;;;;30.75;33.44;100608.75;4963844;28;20042;-74
2021/06/17 09:07:55;;;;;;;6.47;4.88;;;;;;;30.82;32.55;100618.16;4961144;28;20037;-74
2021/06/17 09:10:21;;;;;;;9.77;8.25;;;;;;;30.93;32.05;100617.16;4947174;28;20506;-74
2021/06/17 09:12:49;;;;;;;10.77;7.10;;;;;;;30.98;31.64;100610.28;4961371;28;20058;-74
2021/06/17 09:15:31;;;;;;;7.15;6.30;;;;;;;30.98;30.73;100615.75;4962999;28;20038;-74
2021/06/17 09:18:10;;;;;;;8.95;4.88;;;;;;;31.00;29.58;100616.47;4963940;28;20039;-73
2021/06/17 09:20:36;;;;;;;10.27;7.97;;;;;;;31.04;30.34;100624.38;4958256;28;20510;-74
2021/06/17 09:23:23;;;;;;;10.23;8.35;;;;;;;31.14;30.40;100620.66;4957678;28;20047;-74
2021/06/17 09:25:58;;;;;;;7.25;5.75;;;;;;;31.19;30.39;100625.69;4960275;28;20035;-76
2021/06/17 09:28:23;;;;;;;9.90;7.10;;;;;;;31.28;30.13;100622.09;4955478;28;20064;-74
2021/06/17 09:30:49;;;;;;;9.23;7.95;;;;;;;31.37;30.52;100621.31;4963247;28;20714;-74
2021/06/17 09:33:15;;;;;;;10.93;7.05;;;;;;;31.44;30.03;100621.63;4956850;28;20402;-74
2021/06/17 09:36:10;;;;;;;5.63;5.05;;;;;;;31.50;29.60;100612.00;4964320;28;20582;-74
2021/06/17 09:38:46;;;;;;;9.60;7.03;;;;;;;31.57;28.97;100610.41;4958098;28;20045;-74
2021/06/17 09:41:28;;;;;;;10.63;8.38;;;;;;;31.69;29.21;100614.72;4962665;28;20050;-73
2021/06/17 09:43:53;;;;;;;11.38;8.30;;;;;;;31.79;29.58;100612.00;4961559;28;20062;-74
2021/06/17 09:46:18;;;;;;;6.07;4.60;;;;;;;31.79;27.83;100607.38;4958531;28;20058;-73
2021/06/17 09:48:51;;;;;;;8.55;7.70;;;;;;;31.84;28.58;100617.88;4941077;28;20039;-74
2021/06/17 09:51:40;;;;;;;7.78;5.07;;;;;;;31.96;27.64;100619.44;4959541;28;20039;-74
2021/06/17 09:54:09;;;;;;;9.00;6.85;;;;;;;31.90;27.76;100606.38;4959582;28;20031;-74
2021/06/17 09:56:36;;;;;;;8.57;6.72;;;;;;;31.87;27.95;100602.06;4964083;28;20103;-75
2021/06/17 09:59:03;;;;;;;7.45;4.35;;;;;;;31.87;27.49;100612.97;4958859;28;20035;-75
2021/06/17 10:01:45;;;;;;;9.25;4.75;;;;;;;31.82;26.98;100607.09;4960080;28;20236;-75
2021/06/17 10:04:14;;;;;;;8.38;4.75;;;;;;;31.93;27.48;100617.03;4967375;28;20062;-74
2021/06/17 10:06:43;;;;;;;7.53;6.47;;;;;;;32.08;28.13;100609.25;4963771;28;20086;-74
2021/06/17 10:09:14;;;;;;;8.27;5.43;;;;;;;32.18;27.30;100599.16;4963788;28;20404;-76
2021/06/17 10:11:41;;;;;;;8.65;4.65;;;;;;;32.34;27.56;100611.34;4966738;28;20038;-75
2021/06/17 10:14:07;;;;;;;9.27;7.28;;;;;;;32.40;27.03;100614.31;4932977;28;20031;-75
2021/06/17 10:16:34;;;;;;;8.50;5.05;;;;;;;32.35;26.69;100604.84;4965345;28;20483;-75
2021/06/17 10:19:00;;;;;;;6.82;3.67;;;;;;;32.36;27.02;100609.28;4960112;28;20127;-75
2021/06/17 10:21:27;;;;;;;6.20;4.32;;;;;;;32.38;27.33;100612.75;4966463;28;20039;-75
2021/06/17 10:23:53;;;;;;;7.07;4.90;;;;;;;32.49;26.75;100613.47;4963938;28;20129;-75
2021/06/17 10:26:21;;;;;;;8.05;5.80;;;;;;;32.61;27.43;100608.66;4966637;28;20039;-75
2021/06/17 10:28:55;;;;;;;9.75;8.85;;;;;;;32.64;25.68;100608.38;4959945;28;20182;-75
2021/06/17 10:31:35;;;;;;;6.78;4.63;;;;;;;32.73;25.88;100609.34;4965595;28;20054;-75
2021/06/17 10:34:24;;;;;;;7.22;4.32;;;;;;;32.78;26.82;100606.13;4960093;28;20423;-75
2021/06/17 10:37:19;;;;;;;6.50;4.93;;;;;;;32.93;26.42;100600.03;4951737;28;20451;-75
2021/06/17 10:39:55;;;;;;;6.63;4.32;;;;;;;32.93;26.12;100591.84;4966991;28;20058;-74
2021/06/17 10:42:37;;;;;;;7.15;4.93;;;;;;;33.07;26.04;100595.09;4965148;28;20039;-76
2021/06/17 10:45:06;;;;;;;7.35;4.57;;;;;;;33.12;27.00;100577.22;4959232;28;20123;-76
2021/06/17 10:47:42;;;;;;;6.97;4.30;;;;;;;33.26;26.07;100581.28;4960619;28;20044;-76
2021/06/17 10:50:12;;;;;;;6.25;5.03;;;;;;;33.27;26.21;100579.41;4945776;28;20151;-75
2021/06/17 10:52:40;;;;;;;6.07;3.42;;;;;;;33.24;24.77;100582.44;4966711;28;20037;-75
2021/06/17 10:55:07;;;;;;;11.00;6.03;;;;;;;33.32;25.46;100588.00;4959719;28;20027;-75
2021/06/17 10:57:45;;;;;;;7.18;3.83;;;;;;;33.45;24.78;100583.00;4966119;28;20475;-75
2021/06/17 11:00:25;;;;;;;7.00;4.40;;;;;;;33.53;24.87;100584.94;4965666;28;20041;-75
2021/06/17 11:03:03;;;;;;;9.25;6.82;;;;;;;33.52;25.41;100575.88;4964115;28;20042;-75
2021/06/17 11:05:28;;;;;;;10.27;8.13;;;;;;;33.63;25.14;100573.94;4963296;28;20046;-75
2021/06/17 11:08:25;;;;;;;6.83;4.27;;;;;;;33.61;25.00;100571.38;4966387;28;20041;-77
2021/06/17 11:11:04;;;;;;;5.80;4.13;;;;;;;33.60;24.86;100567.78;4966549;28;20639;-76
2021/06/17 11:13:36;;;;;;;6.90;4.50;;;;;;;33.72;23.40;100562.03;4965132;28;20039;-75
2021/06/17 11:16:13;;;;;;;7.03;4.05;;;;;;;33.74;23.83;100554.53;4963030;28;20035;-75
2021/06/17 11:18:46;;;;;;;10.13;6.72;;;;;;;33.73;24.52;100563.78;4959912;28;20110;-75
2021/06/17 11:21:27;;;;;;;6.32;3.10;;;;;;;33.67;23.50;100565.28;4965250;28;20079;-75
2021/06/17 11:23:54;;;;;;;5.13;3.30;;;;;;;33.67;23.72;100561.66;4947500;28;20040;-75